sensor_id;sensor_type;location;lat;lon;timestamp;temperature;humidity
40952;DHT22;26682;51.660;19.338;2023-06-14T00:01:35;12.80;99.90
40952;DHT22;26682;51.660;19.338;2023-06-14T00:04:17;12.80;99.90
40952;DHT22;26682;51.660;19.338;2023-06-14T00:07:00;12.70;99.90
40952;DHT22;26682;51.660;19.338;2023-06-14T00:09:42;12.70;99.90
40952;DHT22;26682;51.660;19.338;2023-06-14T00:12:25;12.70;99.90
40952;DHT22;26682;51.660;19.338;2023-06-14T00:15:08;12.70;99.90
40952;DHT22;26682;51.660;19.338;2023-06-14T00:17:52;12.70;99.90
40952;DHT22;26682;51.660;19.338;2023-06-14T00:20:34;12.80;99.90
40952;DHT22;26682;51.660;19.338;2023-06-14T00:23:17;12.90;99.90
40952;DHT22;26682;51.660;19.338;2023-06-14T00:26:00;12.90;99.90
40952;DHT22;26682;51.660;19.338;2023-06-14T00:28:42;12.80;99.90
40952;DHT22;26682;51.660;19.338;2023-06-14T00:31:24;12.70;99.90
40952;DHT22;26682;51.660;19.338;2023-06-14T00:34:09;12.70;99.90
40952;DHT22;26682;51.660;19.338;2023-06-14T00:36:51;12.80;99.90
40952;DHT22;26682;51.660;19.338;2023-06-14T00:39:34;12.80;99.90
40952;DHT22;26682;51.660;19.338;2023-06-14T00:42:26;12.70;99.90
40952;DHT22;26682;51.660;19.338;2023-06-14T00:45:10;12.80;99.90
40952;DHT22;26682;51.660;19.338;2023-06-14T00:47:53;12.70;99.90
40952;DHT22;26682;51.660;19.338;2023-06-14T00:50:37;12.80;99.90
40952;DHT22;26682;51.660;19.338;2023-06-14T00:53:20;12.80;99.90
40952;DHT22;26682;51.660;19.338;2023-06-14T00:56:06;12.80;99.90
40952;DHT22;26682;51.660;19.338;2023-06-14T00:58:49;12.70;99.90
40952;DHT22;26682;51.660;19.338;2023-06-14T01:01:33;12.70;99.90
40952;DHT22;26682;51.660;19.338;2023-06-14T01:04:15;12.70;99.90
40952;DHT22;26682;51.660;19.338;2023-06-14T01:07:22;12.70;99.90
40952;DHT22;26682;51.660;19.338;2023-06-14T01:13:45;12.60;99.90
40952;DHT22;26682;51.660;19.338;2023-06-14T01:16:29;12.60;99.90
40952;DHT22;26682;51.660;19.338;2023-06-14T01:19:14;12.50;99.90
40952;DHT22;26682;51.660;19.338;2023-06-14T01:22:01;12.50;99.90
40952;DHT22;26682;51.660;19.338;2023-06-14T01:24:43;12.50;99.90
40952;DHT22;26682;51.660;19.338;2023-06-14T01:27:27;12.50;99.90
40952;DHT22;26682;51.660;19.338;2023-06-14T01:30:15;12.50;99.90
40952;DHT22;26682;51.660;19.338;2023-06-14T01:32:59;12.50;99.90
40952;DHT22;26682;51.660;19.338;2023-06-14T01:35:49;12.50;99.90
40952;DHT22;26682;51.660;19.338;2023-06-14T01:38:31;12.50;99.90
40952;DHT22;26682;51.660;19.338;2023-06-14T01:41:16;12.50;99.90
40952;DHT22;26682;51.660;19.338;2023-06-14T01:43:59;12.50;99.90
40952;DHT22;26682;51.660;19.338;2023-06-14T01:46:43;12.40;99.90
40952;DHT22;26682;51.660;19.338;2023-06-14T01:49:26;12.40;99.90
40952;DHT22;26682;51.660;19.338;2023-06-14T01:52:08;12.30;99.90
40952;DHT22;26682;51.660;19.338;2023-06-14T01:54:51;12.30;99.90
40952;DHT22;26682;51.660;19.338;2023-06-14T01:57:34;12.30;99.90
40952;DHT22;26682;51.660;19.338;2023-06-14T02:00:17;12.30;99.90
40952;DHT22;26682;51.660;19.338;2023-06-14T02:03:00;12.30;99.90
40952;DHT22;26682;51.660;19.338;2023-06-14T02:05:43;12.30;99.90
40952;DHT22;26682;51.660;19.338;2023-06-14T02:08:26;12.30;99.90
40952;DHT22;26682;51.660;19.338;2023-06-14T02:11:08;12.20;99.90
40952;DHT22;26682;51.660;19.338;2023-06-14T02:13:51;12.20;99.90
40952;DHT22;26682;51.660;19.338;2023-06-14T02:16:33;12.20;99.90
40952;DHT22;26682;51.660;19.338;2023-06-14T02:19:19;12.20;99.90
40952;DHT22;26682;51.660;19.338;2023-06-14T02:22:02;12.20;99.90
40952;DHT22;26682;51.660;19.338;2023-06-14T02:24:45;12.10;99.90
40952;DHT22;26682;51.660;19.338;2023-06-14T02:27:27;12.10;99.90
40952;DHT22;26682;51.660;19.338;2023-06-14T02:30:10;12.10;99.90
40952;DHT22;26682;51.660;19.338;2023-06-14T02:32:53;12.00;99.90
40952;DHT22;26682;51.660;19.338;2023-06-14T02:35:35;12.00;99.90
40952;DHT22;26682;51.660;19.338;2023-06-14T02:38:19;12.00;99.90
40952;DHT22;26682;51.660;19.338;2023-06-14T02:41:03;12.00;99.90
40952;DHT22;26682;51.660;19.338;2023-06-14T02:43:46;12.00;99.90
40952;DHT22;26682;51.660;19.338;2023-06-14T02:46:28;12.00;99.90
40952;DHT22;26682;51.660;19.338;2023-06-14T02:49:11;12.00;99.90
40952;DHT22;26682;51.660;19.338;2023-06-14T02:51:54;11.90;99.90
40952;DHT22;26682;51.660;19.338;2023-06-14T02:54:36;12.00;99.90
40952;DHT22;26682;51.660;19.338;2023-06-14T02:57:19;12.00;99.90
40952;DHT22;26682;51.660;19.338;2023-06-14T03:00:03;12.00;99.90
40952;DHT22;26682;51.660;19.338;2023-06-14T03:02:48;12.00;99.90
40952;DHT22;26682;51.660;19.338;2023-06-14T03:05:33;12.00;99.90
40952;DHT22;26682;51.660;19.338;2023-06-14T03:08:16;12.10;99.90
40952;DHT22;26682;51.660;19.338;2023-06-14T03:11:06;12.10;99.90
40952;DHT22;26682;51.660;19.338;2023-06-14T03:13:50;12.10;99.90
40952;DHT22;26682;51.660;19.338;2023-06-14T03:16:33;12.20;99.90
40952;DHT22;26682;51.660;19.338;2023-06-14T03:19:16;12.20;99.90
40952;DHT22;26682;51.660;19.338;2023-06-14T03:21:59;12.30;99.90
40952;DHT22;26682;51.660;19.338;2023-06-14T03:24:44;12.30;99.90
40952;DHT22;26682;51.660;19.338;2023-06-14T03:27:29;12.30;99.90
40952;DHT22;26682;51.660;19.338;2023-06-14T03:30:13;12.30;99.90
40952;DHT22;26682;51.660;19.338;2023-06-14T03:32:59;12.30;99.90
40952;DHT22;26682;51.660;19.338;2023-06-14T03:35:44;12.30;99.90
40952;DHT22;26682;51.660;19.338;2023-06-14T03:38:26;12.20;99.90
40952;DHT22;26682;51.660;19.338;2023-06-14T03:41:10;12.20;99.90
40952;DHT22;26682;51.660;19.338;2023-06-14T03:43:52;12.30;99.90
40952;DHT22;26682;51.660;19.338;2023-06-14T03:46:36;12.40;99.90
40952;DHT22;26682;51.660;19.338;2023-06-14T03:49:18;12.40;99.90
40952;DHT22;26682;51.660;19.338;2023-06-14T03:52:01;12.40;99.90
40952;DHT22;26682;51.660;19.338;2023-06-14T03:54:46;12.40;99.90
40952;DHT22;26682;51.660;19.338;2023-06-14T03:57:33;12.40;99.90
40952;DHT22;26682;51.660;19.338;2023-06-14T04:00:17;12.40;99.90
40952;DHT22;26682;51.660;19.338;2023-06-14T04:03:00;12.40;99.90
40952;DHT22;26682;51.660;19.338;2023-06-14T04:05:43;12.50;99.90
40952;DHT22;26682;51.660;19.338;2023-06-14T04:08:27;12.60;99.90
40952;DHT22;26682;51.660;19.338;2023-06-14T04:11:12;12.60;99.90
40952;DHT22;26682;51.660;19.338;2023-06-14T04:13:56;12.50;99.90
40952;DHT22;26682;51.660;19.338;2023-06-14T04:16:40;12.50;99.90
40952;DHT22;26682;51.660;19.338;2023-06-14T04:19:23;12.60;99.90
40952;DHT22;26682;51.660;19.338;2023-06-14T04:22:06;12.70;99.90
40952;DHT22;26682;51.660;19.338;2023-06-14T04:24:50;12.80;99.90
40952;DHT22;26682;51.660;19.338;2023-06-14T04:27:46;12.80;99.90
40952;DHT22;26682;51.660;19.338;2023-06-14T04:30:29;12.70;99.90
40952;DHT22;26682;51.660;19.338;2023-06-14T04:33:13;12.80;99.90
40952;DHT22;26682;51.660;19.338;2023-06-14T04:35:58;12.80;99.90
40952;DHT22;26682;51.660;19.338;2023-06-14T04:38:45;12.90;99.90
40952;DHT22;26682;51.660;19.338;2023-06-14T04:41:29;13.00;99.90
40952;DHT22;26682;51.660;19.338;2023-06-14T04:44:14;13.10;99.90
40952;DHT22;26682;51.660;19.338;2023-06-14T04:47:02;13.20;99.90
40952;DHT22;26682;51.660;19.338;2023-06-14T04:49:44;13.20;99.90
40952;DHT22;26682;51.660;19.338;2023-06-14T04:52:28;13.30;99.90
40952;DHT22;26682;51.660;19.338;2023-06-14T04:55:12;13.40;99.90
40952;DHT22;26682;51.660;19.338;2023-06-14T04:57:56;13.40;99.90
40952;DHT22;26682;51.660;19.338;2023-06-14T05:00:40;13.60;99.90
40952;DHT22;26682;51.660;19.338;2023-06-14T05:03:25;13.70;99.90
40952;DHT22;26682;51.660;19.338;2023-06-14T05:06:09;13.70;99.90
40952;DHT22;26682;51.660;19.338;2023-06-14T05:08:52;13.70;99.90
40952;DHT22;26682;51.660;19.338;2023-06-14T05:11:34;13.70;99.90
40952;DHT22;26682;51.660;19.338;2023-06-14T05:14:17;13.60;99.90
40952;DHT22;26682;51.660;19.338;2023-06-14T05:17:01;13.60;99.90
40952;DHT22;26682;51.660;19.338;2023-06-14T05:19:44;13.60;99.90
40952;DHT22;26682;51.660;19.338;2023-06-14T05:22:27;13.70;99.90
40952;DHT22;26682;51.660;19.338;2023-06-14T05:25:10;13.80;99.90
40952;DHT22;26682;51.660;19.338;2023-06-14T05:27:52;13.80;99.90
40952;DHT22;26682;51.660;19.338;2023-06-14T05:30:35;13.90;99.90
40952;DHT22;26682;51.660;19.338;2023-06-14T05:33:17;14.00;99.90
40952;DHT22;26682;51.660;19.338;2023-06-14T05:36:00;14.10;99.90
40952;DHT22;26682;51.660;19.338;2023-06-14T05:38:43;14.10;99.90
40952;DHT22;26682;51.660;19.338;2023-06-14T05:41:26;14.10;99.90
40952;DHT22;26682;51.660;19.338;2023-06-14T05:44:10;14.20;99.90
40952;DHT22;26682;51.660;19.338;2023-06-14T05:46:53;14.10;99.90
40952;DHT22;26682;51.660;19.338;2023-06-14T05:49:36;14.00;99.90
40952;DHT22;26682;51.660;19.338;2023-06-14T05:52:18;14.20;99.90
40952;DHT22;26682;51.660;19.338;2023-06-14T05:55:01;14.30;99.90
40952;DHT22;26682;51.660;19.338;2023-06-14T05:57:44;14.30;99.90
40952;DHT22;26682;51.660;19.338;2023-06-14T06:00:27;14.20;99.90
40952;DHT22;26682;51.660;19.338;2023-06-14T06:03:10;14.20;99.90
40952;DHT22;26682;51.660;19.338;2023-06-14T06:05:53;14.30;99.90
40952;DHT22;26682;51.660;19.338;2023-06-14T06:08:36;14.30;99.90
40952;DHT22;26682;51.660;19.338;2023-06-14T06:11:18;14.40;99.90
40952;DHT22;26682;51.660;19.338;2023-06-14T06:14:01;14.60;99.90
40952;DHT22;26682;51.660;19.338;2023-06-14T06:16:44;14.60;99.90
40952;DHT22;26682;51.660;19.338;2023-06-14T06:19:26;14.70;99.90
40952;DHT22;26682;51.660;19.338;2023-06-14T06:22:09;14.90;99.90
40952;DHT22;26682;51.660;19.338;2023-06-14T06:24:51;15.00;99.90
40952;DHT22;26682;51.660;19.338;2023-06-14T06:27:34;15.00;99.90
40952;DHT22;26682;51.660;19.338;2023-06-14T06:30:19;14.90;99.90
40952;DHT22;26682;51.660;19.338;2023-06-14T06:33:02;14.90;99.90
40952;DHT22;26682;51.660;19.338;2023-06-14T06:35:45;14.90;99.90
40952;DHT22;26682;51.660;19.338;2023-06-14T06:38:28;15.10;99.90
40952;DHT22;26682;51.660;19.338;2023-06-14T06:41:11;15.10;99.90
40952;DHT22;26682;51.660;19.338;2023-06-14T06:43:53;15.20;99.90
40952;DHT22;26682;51.660;19.338;2023-06-14T06:46:43;15.30;99.90
40952;DHT22;26682;51.660;19.338;2023-06-14T06:49:26;15.30;99.90
40952;DHT22;26682;51.660;19.338;2023-06-14T06:52:09;15.40;99.90
40952;DHT22;26682;51.660;19.338;2023-06-14T06:54:51;15.30;99.90
40952;DHT22;26682;51.660;19.338;2023-06-14T06:57:37;15.20;99.90
40952;DHT22;26682;51.660;19.338;2023-06-14T07:00:20;15.00;99.90
40952;DHT22;26682;51.660;19.338;2023-06-14T07:03:03;15.00;99.90
40952;DHT22;26682;51.660;19.338;2023-06-14T07:05:54;15.00;99.90
40952;DHT22;26682;51.660;19.338;2023-06-14T07:08:36;14.90;99.90
40952;DHT22;26682;51.660;19.338;2023-06-14T07:11:20;15.00;99.90
40952;DHT22;26682;51.660;19.338;2023-06-14T07:14:03;15.10;99.90
40952;DHT22;26682;51.660;19.338;2023-06-14T07:16:45;15.30;99.90
40952;DHT22;26682;51.660;19.338;2023-06-14T07:19:29;15.30;99.90
40952;DHT22;26682;51.660;19.338;2023-06-14T07:22:12;15.60;99.90
40952;DHT22;26682;51.660;19.338;2023-06-14T07:24:56;16.00;99.90
40952;DHT22;26682;51.660;19.338;2023-06-14T07:27:38;16.20;99.90
40952;DHT22;26682;51.660;19.338;2023-06-14T07:30:22;16.20;99.90
40952;DHT22;26682;51.660;19.338;2023-06-14T07:33:08;16.30;99.90
40952;DHT22;26682;51.660;19.338;2023-06-14T07:35:51;16.40;99.90
40952;DHT22;26682;51.660;19.338;2023-06-14T07:38:34;16.50;99.90
40952;DHT22;26682;51.660;19.338;2023-06-14T07:41:18;17.00;99.90
40952;DHT22;26682;51.660;19.338;2023-06-14T07:44:01;17.50;99.90
40952;DHT22;26682;51.660;19.338;2023-06-14T07:46:44;17.60;99.90
40952;DHT22;26682;51.660;19.338;2023-06-14T07:49:28;17.50;99.90
40952;DHT22;26682;51.660;19.338;2023-06-14T07:52:10;17.70;99.90
40952;DHT22;26682;51.660;19.338;2023-06-14T07:54:56;17.30;99.90
40952;DHT22;26682;51.660;19.338;2023-06-14T07:57:39;17.30;99.90
40952;DHT22;26682;51.660;19.338;2023-06-14T08:00:21;17.30;99.90
40952;DHT22;26682;51.660;19.338;2023-06-14T08:03:04;17.10;99.90
40952;DHT22;26682;51.660;19.338;2023-06-14T08:05:46;17.00;99.90
40952;DHT22;26682;51.660;19.338;2023-06-14T08:08:29;17.00;99.90
40952;DHT22;26682;51.660;19.338;2023-06-14T08:11:12;16.70;99.90
40952;DHT22;26682;51.660;19.338;2023-06-14T08:13:55;16.60;99.90
40952;DHT22;26682;51.660;19.338;2023-06-14T08:16:37;16.70;99.90
40952;DHT22;26682;51.660;19.338;2023-06-14T08:19:20;16.80;99.90
40952;DHT22;26682;51.660;19.338;2023-06-14T08:22:03;17.00;99.90
40952;DHT22;26682;51.660;19.338;2023-06-14T08:24:46;17.10;99.90
40952;DHT22;26682;51.660;19.338;2023-06-14T08:27:29;17.20;99.90
40952;DHT22;26682;51.660;19.338;2023-06-14T08:30:12;17.40;99.90
40952;DHT22;26682;51.660;19.338;2023-06-14T08:32:55;17.80;99.90
40952;DHT22;26682;51.660;19.338;2023-06-14T08:35:57;18.10;99.90
40952;DHT22;26682;51.660;19.338;2023-06-14T08:38:39;18.40;99.90
40952;DHT22;26682;51.660;19.338;2023-06-14T08:41:23;18.40;99.90
40952;DHT22;26682;51.660;19.338;2023-06-14T08:44:06;18.40;99.90
40952;DHT22;26682;51.660;19.338;2023-06-14T08:46:50;18.30;99.90
40952;DHT22;26682;51.660;19.338;2023-06-14T08:49:36;18.00;99.90
40952;DHT22;26682;51.660;19.338;2023-06-14T08:52:21;17.50;99.90
40952;DHT22;26682;51.660;19.338;2023-06-14T08:55:05;17.40;99.90
40952;DHT22;26682;51.660;19.338;2023-06-14T08:57:48;17.30;99.90
40952;DHT22;26682;51.660;19.338;2023-06-14T09:00:31;17.20;99.90
40952;DHT22;26682;51.660;19.338;2023-06-14T09:03:19;17.00;99.90
40952;DHT22;26682;51.660;19.338;2023-06-14T09:06:03;17.00;99.90
40952;DHT22;26682;51.660;19.338;2023-06-14T09:08:47;17.00;99.90
40952;DHT22;26682;51.660;19.338;2023-06-14T09:11:32;17.00;99.90
40952;DHT22;26682;51.660;19.338;2023-06-14T09:14:14;16.80;99.90
40952;DHT22;26682;51.660;19.338;2023-06-14T09:16:57;16.90;99.90
40952;DHT22;26682;51.660;19.338;2023-06-14T09:19:41;16.70;99.90
40952;DHT22;26682;51.660;19.338;2023-06-14T09:22:23;16.70;99.90
40952;DHT22;26682;51.660;19.338;2023-06-14T09:25:07;16.70;99.90
40952;DHT22;26682;51.660;19.338;2023-06-14T09:27:51;16.50;99.90
40952;DHT22;26682;51.660;19.338;2023-06-14T09:30:35;16.70;99.90
40952;DHT22;26682;51.660;19.338;2023-06-14T09:33:17;16.90;99.90
40952;DHT22;26682;51.660;19.338;2023-06-14T09:36:00;16.80;99.90
40952;DHT22;26682;51.660;19.338;2023-06-14T09:38:58;16.90;99.90
40952;DHT22;26682;51.660;19.338;2023-06-14T09:41:43;17.30;99.90
40952;DHT22;26682;51.660;19.338;2023-06-14T09:44:26;17.30;99.90
40952;DHT22;26682;51.660;19.338;2023-06-14T09:47:12;17.50;99.90
40952;DHT22;26682;51.660;19.338;2023-06-14T09:49:55;17.50;99.90
40952;DHT22;26682;51.660;19.338;2023-06-14T09:52:39;17.70;99.90
40952;DHT22;26682;51.660;19.338;2023-06-14T09:55:21;17.80;99.90
40952;DHT22;26682;51.660;19.338;2023-06-14T09:58:06;17.70;99.90
40952;DHT22;26682;51.660;19.338;2023-06-14T10:00:50;17.50;99.90
40952;DHT22;26682;51.660;19.338;2023-06-14T10:03:40;17.30;99.90
40952;DHT22;26682;51.660;19.338;2023-06-14T10:06:45;17.40;99.90
40952;DHT22;26682;51.660;19.338;2023-06-14T10:09:29;17.40;99.90
40952;DHT22;26682;51.660;19.338;2023-06-14T10:12:15;17.40;99.90
40952;DHT22;26682;51.660;19.338;2023-06-14T10:15:03;17.50;99.90
40952;DHT22;26682;51.660;19.338;2023-06-14T10:17:54;17.70;99.90
40952;DHT22;26682;51.660;19.338;2023-06-14T10:20:48;17.60;99.90
40952;DHT22;26682;51.660;19.338;2023-06-14T10:23:37;17.40;99.90
40952;DHT22;26682;51.660;19.338;2023-06-14T10:26:22;17.30;99.90
40952;DHT22;26682;51.660;19.338;2023-06-14T10:29:08;17.30;99.90
40952;DHT22;26682;51.660;19.338;2023-06-14T10:31:56;17.40;99.90
40952;DHT22;26682;51.660;19.338;2023-06-14T10:34:39;17.60;99.90
40952;DHT22;26682;51.660;19.338;2023-06-14T10:37:22;17.80;99.90
40952;DHT22;26682;51.660;19.338;2023-06-14T10:40:08;17.90;99.90
40952;DHT22;26682;51.660;19.338;2023-06-14T10:42:51;18.00;99.90
40952;DHT22;26682;51.660;19.338;2023-06-14T10:45:34;17.80;99.90
40952;DHT22;26682;51.660;19.338;2023-06-14T10:48:32;17.80;99.90
40952;DHT22;26682;51.660;19.338;2023-06-14T10:51:20;18.00;99.90
40952;DHT22;26682;51.660;19.338;2023-06-14T10:54:03;18.10;99.90
40952;DHT22;26682;51.660;19.338;2023-06-14T10:56:50;18.10;99.90
40952;DHT22;26682;51.660;19.338;2023-06-14T10:59:33;18.20;99.90
40952;DHT22;26682;51.660;19.338;2023-06-14T11:02:51;18.30;99.90
40952;DHT22;26682;51.660;19.338;2023-06-14T11:05:52;18.50;99.90
40952;DHT22;26682;51.660;19.338;2023-06-14T11:08:44;18.60;99.90
40952;DHT22;26682;51.660;19.338;2023-06-14T11:11:35;18.70;99.90
40952;DHT22;26682;51.660;19.338;2023-06-14T11:14:19;18.50;99.90
40952;DHT22;26682;51.660;19.338;2023-06-14T11:17:02;18.40;99.90
40952;DHT22;26682;51.660;19.338;2023-06-14T11:19:45;18.30;99.90
40952;DHT22;26682;51.660;19.338;2023-06-14T11:22:28;18.20;99.90
40952;DHT22;26682;51.660;19.338;2023-06-14T11:25:11;18.00;99.90
40952;DHT22;26682;51.660;19.338;2023-06-14T11:27:55;17.90;99.90
40952;DHT22;26682;51.660;19.338;2023-06-14T11:30:38;17.60;99.90
40952;DHT22;26682;51.660;19.338;2023-06-14T11:33:22;17.70;99.90
40952;DHT22;26682;51.660;19.338;2023-06-14T11:36:06;17.70;99.90
40952;DHT22;26682;51.660;19.338;2023-06-14T11:39:03;17.60;99.90
40952;DHT22;26682;51.660;19.338;2023-06-14T11:41:46;17.40;99.90
40952;DHT22;26682;51.660;19.338;2023-06-14T11:44:28;17.30;99.90
40952;DHT22;26682;51.660;19.338;2023-06-14T11:47:12;17.20;99.90
40952;DHT22;26682;51.660;19.338;2023-06-14T11:49:54;17.20;99.90
40952;DHT22;26682;51.660;19.338;2023-06-14T11:52:37;17.20;99.90
40952;DHT22;26682;51.660;19.338;2023-06-14T11:55:21;17.20;99.90
40952;DHT22;26682;51.660;19.338;2023-06-14T11:58:04;17.20;99.90
40952;DHT22;26682;51.660;19.338;2023-06-14T12:00:49;17.20;99.90
40952;DHT22;26682;51.660;19.338;2023-06-14T12:03:32;17.20;99.90
40952;DHT22;26682;51.660;19.338;2023-06-14T12:06:15;17.20;99.90
40952;DHT22;26682;51.660;19.338;2023-06-14T12:08:58;17.20;99.90
40952;DHT22;26682;51.660;19.338;2023-06-14T12:11:43;17.30;99.90
40952;DHT22;26682;51.660;19.338;2023-06-14T12:14:31;17.40;99.90
40952;DHT22;26682;51.660;19.338;2023-06-14T12:17:16;17.40;99.90
40952;DHT22;26682;51.660;19.338;2023-06-14T12:20:04;17.30;99.90
40952;DHT22;26682;51.660;19.338;2023-06-14T12:22:52;17.30;99.90
40952;DHT22;26682;51.660;19.338;2023-06-14T12:25:37;17.20;99.90
40952;DHT22;26682;51.660;19.338;2023-06-14T12:28:21;17.30;99.90
40952;DHT22;26682;51.660;19.338;2023-06-14T12:31:04;17.40;99.90
40952;DHT22;26682;51.660;19.338;2023-06-14T12:33:47;17.60;99.90
40952;DHT22;26682;51.660;19.338;2023-06-14T12:36:31;17.90;99.90
40952;DHT22;26682;51.660;19.338;2023-06-14T12:39:14;18.20;99.90
40952;DHT22;26682;51.660;19.338;2023-06-14T12:41:57;18.40;99.90
40952;DHT22;26682;51.660;19.338;2023-06-14T12:44:40;18.40;99.90
40952;DHT22;26682;51.660;19.338;2023-06-14T12:47:23;18.40;99.90
40952;DHT22;26682;51.660;19.338;2023-06-14T12:50:06;18.30;99.90
40952;DHT22;26682;51.660;19.338;2023-06-14T12:52:49;18.20;99.90
40952;DHT22;26682;51.660;19.338;2023-06-14T12:55:32;18.20;99.90
40952;DHT22;26682;51.660;19.338;2023-06-14T12:58:15;18.30;99.90
40952;DHT22;26682;51.660;19.338;2023-06-14T13:00:59;18.40;99.90
40952;DHT22;26682;51.660;19.338;2023-06-14T13:03:42;18.50;99.90
40952;DHT22;26682;51.660;19.338;2023-06-14T13:06:25;18.50;99.90
40952;DHT22;26682;51.660;19.338;2023-06-14T13:09:07;18.40;99.90
40952;DHT22;26682;51.660;19.338;2023-06-14T13:11:50;18.40;99.90
40952;DHT22;26682;51.660;19.338;2023-06-14T13:14:33;18.40;99.90
40952;DHT22;26682;51.660;19.338;2023-06-14T13:17:16;18.50;99.90
40952;DHT22;26682;51.660;19.338;2023-06-14T13:19:58;18.50;99.90
40952;DHT22;26682;51.660;19.338;2023-06-14T13:22:41;18.60;99.90
40952;DHT22;26682;51.660;19.338;2023-06-14T13:25:24;18.70;99.90
40952;DHT22;26682;51.660;19.338;2023-06-14T13:28:07;18.80;99.90
40952;DHT22;26682;51.660;19.338;2023-06-14T13:30:49;18.80;99.90
40952;DHT22;26682;51.660;19.338;2023-06-14T13:33:33;18.80;99.90
40952;DHT22;26682;51.660;19.338;2023-06-14T13:36:15;18.70;99.90
40952;DHT22;26682;51.660;19.338;2023-06-14T13:39:01;18.70;99.90
40952;DHT22;26682;51.660;19.338;2023-06-14T13:41:43;18.30;99.90
40952;DHT22;26682;51.660;19.338;2023-06-14T13:44:26;17.30;99.90
40952;DHT22;26682;51.660;19.338;2023-06-14T13:47:08;16.60;99.90
40952;DHT22;26682;51.660;19.338;2023-06-14T13:49:51;16.10;99.90
40952;DHT22;26682;51.660;19.338;2023-06-14T13:52:34;15.90;99.90
40952;DHT22;26682;51.660;19.338;2023-06-14T13:55:18;15.80;99.90
40952;DHT22;26682;51.660;19.338;2023-06-14T13:58:00;15.60;99.90
40952;DHT22;26682;51.660;19.338;2023-06-14T14:00:43;15.50;99.90
40952;DHT22;26682;51.660;19.338;2023-06-14T14:03:51;15.50;99.90
40952;DHT22;26682;51.660;19.338;2023-06-14T14:06:34;15.50;99.90
40952;DHT22;26682;51.660;19.338;2023-06-14T14:09:17;15.40;99.90
40952;DHT22;26682;51.660;19.338;2023-06-14T14:12:01;15.50;99.90
40952;DHT22;26682;51.660;19.338;2023-06-14T14:14:47;15.40;99.90
40952;DHT22;26682;51.660;19.338;2023-06-14T14:17:30;15.30;99.90
40952;DHT22;26682;51.660;19.338;2023-06-14T14:20:12;15.30;99.90
40952;DHT22;26682;51.660;19.338;2023-06-14T14:22:58;15.30;99.90
40952;DHT22;26682;51.660;19.338;2023-06-14T14:25:41;15.20;99.90
40952;DHT22;26682;51.660;19.338;2023-06-14T14:28:24;15.20;99.90
40952;DHT22;26682;51.660;19.338;2023-06-14T14:31:07;15.10;99.90
40952;DHT22;26682;51.660;19.338;2023-06-14T14:33:50;15.00;99.90
40952;DHT22;26682;51.660;19.338;2023-06-14T14:36:32;14.80;99.90
40952;DHT22;26682;51.660;19.338;2023-06-14T14:39:20;14.80;99.90
40952;DHT22;26682;51.660;19.338;2023-06-14T14:42:03;14.70;99.90
40952;DHT22;26682;51.660;19.338;2023-06-14T14:44:45;14.70;99.90
40952;DHT22;26682;51.660;19.338;2023-06-14T14:47:28;14.70;99.90
40952;DHT22;26682;51.660;19.338;2023-06-14T14:50:11;14.60;99.90
40952;DHT22;26682;51.660;19.338;2023-06-14T14:52:53;14.50;99.90
40952;DHT22;26682;51.660;19.338;2023-06-14T14:55:37;14.40;99.90
40952;DHT22;26682;51.660;19.338;2023-06-14T14:58:21;14.40;99.90
40952;DHT22;26682;51.660;19.338;2023-06-14T15:01:05;14.40;99.90
40952;DHT22;26682;51.660;19.338;2023-06-14T15:03:48;14.40;99.90
40952;DHT22;26682;51.660;19.338;2023-06-14T15:06:41;14.40;99.90
40952;DHT22;26682;51.660;19.338;2023-06-14T15:09:24;14.40;99.90
40952;DHT22;26682;51.660;19.338;2023-06-14T15:12:07;14.50;99.90
40952;DHT22;26682;51.660;19.338;2023-06-14T15:14:53;14.50;99.90
40952;DHT22;26682;51.660;19.338;2023-06-14T15:17:36;14.50;99.90
40952;DHT22;26682;51.660;19.338;2023-06-14T15:20:18;14.40;99.90
40952;DHT22;26682;51.660;19.338;2023-06-14T15:23:01;14.50;99.90
40952;DHT22;26682;51.660;19.338;2023-06-14T15:25:43;14.50;99.90
40952;DHT22;26682;51.660;19.338;2023-06-14T15:28:26;14.40;99.90
40952;DHT22;26682;51.660;19.338;2023-06-14T15:31:10;14.50;99.90
40952;DHT22;26682;51.660;19.338;2023-06-14T15:33:53;14.60;99.90
40952;DHT22;26682;51.660;19.338;2023-06-14T15:36:36;14.60;99.90
40952;DHT22;26682;51.660;19.338;2023-06-14T15:39:18;14.70;99.90
40952;DHT22;26682;51.660;19.338;2023-06-14T15:42:02;14.70;99.90
40952;DHT22;26682;51.660;19.338;2023-06-14T15:44:44;14.70;99.90
40952;DHT22;26682;51.660;19.338;2023-06-14T15:47:29;14.70;99.90
40952;DHT22;26682;51.660;19.338;2023-06-14T15:50:12;14.70;99.90
40952;DHT22;26682;51.660;19.338;2023-06-14T15:52:54;14.70;99.90
40952;DHT22;26682;51.660;19.338;2023-06-14T15:55:37;14.70;99.90
40952;DHT22;26682;51.660;19.338;2023-06-14T15:58:19;14.70;99.90
40952;DHT22;26682;51.660;19.338;2023-06-14T16:01:02;14.60;99.90
40952;DHT22;26682;51.660;19.338;2023-06-14T16:03:44;14.70;99.90
40952;DHT22;26682;51.660;19.338;2023-06-14T16:06:27;14.70;99.90
40952;DHT22;26682;51.660;19.338;2023-06-14T16:09:10;14.80;99.90
40952;DHT22;26682;51.660;19.338;2023-06-14T16:11:53;14.90;99.90
40952;DHT22;26682;51.660;19.338;2023-06-14T16:14:37;14.90;99.90
40952;DHT22;26682;51.660;19.338;2023-06-14T16:17:19;15.00;99.90
40952;DHT22;26682;51.660;19.338;2023-06-14T16:20:02;15.00;99.90
40952;DHT22;26682;51.660;19.338;2023-06-14T16:22:44;15.10;99.90
40952;DHT22;26682;51.660;19.338;2023-06-14T16:25:27;15.10;99.90
40952;DHT22;26682;51.660;19.338;2023-06-14T16:28:11;15.30;99.90
40952;DHT22;26682;51.660;19.338;2023-06-14T16:30:53;15.30;99.90
40952;DHT22;26682;51.660;19.338;2023-06-14T16:33:36;15.30;99.90
40952;DHT22;26682;51.660;19.338;2023-06-14T16:36:18;15.30;99.90
40952;DHT22;26682;51.660;19.338;2023-06-14T16:39:01;15.40;99.90
40952;DHT22;26682;51.660;19.338;2023-06-14T16:41:43;15.40;99.90
40952;DHT22;26682;51.660;19.338;2023-06-14T16:44:26;15.40;99.90
40952;DHT22;26682;51.660;19.338;2023-06-14T16:47:08;15.30;99.90
40952;DHT22;26682;51.660;19.338;2023-06-14T16:49:52;15.40;99.90
40952;DHT22;26682;51.660;19.338;2023-06-14T16:52:35;15.30;99.90
40952;DHT22;26682;51.660;19.338;2023-06-14T16:55:18;15.20;99.90
40952;DHT22;26682;51.660;19.338;2023-06-14T16:58:01;15.20;99.90
40952;DHT22;26682;51.660;19.338;2023-06-14T17:00:43;15.20;99.90
40952;DHT22;26682;51.660;19.338;2023-06-14T17:03:26;15.20;99.90